createdAt,value
2022-10-17T00:00:43.641Z,6.50
2022-10-17T00:03:10.995Z,6.70
2022-10-17T00:05:43.554Z,6.53
2022-10-17T00:08:12.033Z,6.70
2022-10-17T00:10:40.093Z,7.35
2022-10-17T00:13:09.114Z,6.78
2022-10-17T00:15:36.235Z,6.50
2022-10-17T00:18:04.300Z,6.53
2022-10-17T00:20:32.801Z,7.00
2022-10-17T00:23:00.481Z,6.75
2022-10-17T00:25:27.911Z,6.95
2022-10-17T00:27:55.024Z,6.57
2022-10-17T00:30:22.169Z,6.80
2022-10-17T00:32:49.359Z,6.78
2022-10-17T00:35:16.825Z,6.28
2022-10-17T00:37:43.971Z,6.60
2022-10-17T00:40:11.488Z,6.35
2022-10-17T00:42:39.060Z,6.43
2022-10-17T00:45:22.621Z,6.10
2022-10-17T00:47:59.127Z,5.80
2022-10-17T00:50:27.017Z,5.40
2022-10-17T00:52:55.872Z,5.13
2022-10-17T00:55:29.244Z,5.00
2022-10-17T00:58:00.470Z,5.18
2022-10-17T01:00:27.661Z,5.20
2022-10-17T01:02:54.849Z,5.00
2022-10-17T01:05:23.207Z,5.00
2022-10-17T01:07:53.021Z,5.57
2022-10-17T01:13:22.932Z,5.20
2022-10-17T01:16:08.499Z,5.53
2022-10-17T01:18:57.805Z,5.20
2022-10-17T01:21:47.789Z,5.75
2022-10-17T01:24:36.880Z,5.72
2022-10-17T01:27:26.397Z,5.70
2022-10-17T01:30:16.497Z,5.82
2022-10-17T01:32:53.356Z,6.00
2022-10-17T01:35:34.116Z,5.87
2022-10-17T01:38:18.357Z,5.88
2022-10-17T01:40:51.375Z,6.17
2022-10-17T01:43:25.362Z,6.03
2022-10-17T01:46:03.248Z,6.20
2022-10-17T01:48:36.116Z,6.72
2022-10-17T01:51:24.819Z,6.70
2022-10-17T01:54:18.424Z,6.90
2022-10-17T01:56:47.966Z,6.85
2022-10-17T01:59:23.554Z,6.90
2022-10-17T02:01:53.750Z,7.10
2022-10-17T02:04:21.619Z,6.80
2022-10-17T02:06:48.862Z,7.38
2022-10-17T02:09:18.518Z,7.55
2022-10-17T02:12:14.588Z,7.00
2022-10-17T02:14:49.667Z,7.38
2022-10-17T02:17:33.199Z,7.53
2022-10-17T02:20:21.231Z,7.67
2022-10-17T02:23:01.922Z,8.20
2022-10-17T02:25:41.459Z,7.97
2022-10-17T02:28:23.047Z,7.57
2022-10-17T02:31:13.684Z,7.97
2022-10-17T02:33:50.879Z,7.53
2022-10-17T02:36:23.281Z,7.90
2022-10-17T02:38:53.586Z,8.02
2022-10-17T02:41:23.351Z,7.53
2022-10-17T02:43:53.365Z,7.30
2022-10-17T02:46:23.294Z,7.00
2022-10-17T02:49:07.212Z,7.77
2022-10-17T02:51:42.486Z,6.97
2022-10-17T02:54:34.345Z,6.22
2022-10-17T02:57:16.285Z,6.97
2022-10-17T02:59:45.559Z,6.72
2022-10-17T03:02:13.009Z,6.95
2022-10-17T03:04:45.639Z,6.60
2022-10-17T03:07:13.363Z,6.53
2022-10-17T03:09:40.632Z,7.07
2022-10-17T03:12:07.892Z,6.03
2022-10-17T03:14:35.896Z,7.22
2022-10-17T03:17:04.109Z,7.28
2022-10-17T03:19:31.486Z,7.65
2022-10-17T03:21:58.671Z,7.88
2022-10-17T03:24:25.936Z,8.23
2022-10-17T03:26:53.085Z,8.57
2022-10-17T03:29:20.253Z,7.90
2022-10-17T03:31:47.847Z,8.38
2022-10-17T03:34:17.575Z,8.13
2022-10-17T03:36:45.424Z,7.40
2022-10-17T03:39:12.810Z,7.45
2022-10-17T03:41:40.068Z,7.57
2022-10-17T03:44:07.277Z,7.68
2022-10-17T03:46:34.406Z,7.43
2022-10-17T03:49:01.577Z,7.78
2022-10-17T03:51:29.124Z,7.60
2022-10-17T03:54:02.787Z,7.07
2022-10-17T03:56:29.957Z,7.40
2022-10-17T03:59:02.057Z,6.95
2022-10-17T04:01:31.201Z,6.90
2022-10-17T04:03:58.392Z,6.30
2022-10-17T04:06:29.651Z,6.75
2022-10-17T04:08:57.037Z,6.90
2022-10-17T04:11:28.282Z,6.78
2022-10-17T04:13:59.850Z,5.45
2022-10-17T04:16:27.954Z,6.28
2022-10-17T04:19:05.384Z,6.70
2022-10-17T04:21:39.650Z,6.47
2022-10-17T04:24:11.454Z,5.80
2022-10-17T04:26:44.906Z,6.10
2022-10-17T04:29:13.038Z,6.30
2022-10-17T04:31:42.023Z,6.38
2022-10-17T04:34:22.561Z,6.40
2022-10-17T04:36:51.714Z,6.65
2022-10-17T04:39:18.859Z,6.32
2022-10-17T04:41:46.701Z,5.45
2022-10-17T04:44:13.966Z,5.78
2022-10-17T04:46:46.762Z,6.13
2022-10-17T04:49:13.919Z,6.00
2022-10-17T04:51:43.777Z,6.20
2022-10-17T04:54:19.937Z,6.00
2022-10-17T04:56:52.074Z,5.70
2022-10-17T04:59:19.551Z,6.15
2022-10-17T05:01:49.847Z,5.25
2022-10-17T05:04:22.360Z,4.63
2022-10-17T05:06:51.930Z,5.87
2022-10-17T05:09:38.130Z,5.43
2022-10-17T05:12:09.451Z,5.97
2022-10-17T05:14:39.121Z,6.05
2022-10-17T05:17:06.577Z,5.80
2022-10-17T05:19:33.800Z,5.63
2022-10-17T05:22:01.178Z,6.47
2022-10-17T05:24:29.262Z,6.60
2022-10-17T05:26:56.698Z,6.00
2022-10-17T05:29:24.051Z,6.40
2022-10-17T05:31:56.671Z,6.35
2022-10-17T05:34:25.024Z,6.43
2022-10-17T05:36:52.313Z,6.18
2022-10-17T05:39:23.229Z,6.30
2022-10-17T05:41:52.382Z,6.45
2022-10-17T05:44:19.511Z,5.80
2022-10-17T05:46:53.031Z,5.88
2022-10-17T05:49:32.585Z,6.50
2022-10-17T05:52:07.571Z,5.90
2022-10-17T05:54:44.627Z,6.68
2022-10-17T05:57:12.330Z,6.57
2022-10-17T05:59:40.997Z,6.10
2022-10-17T06:02:13.225Z,6.72
2022-10-17T06:04:45.454Z,6.63
2022-10-17T06:07:13.860Z,6.88
2022-10-17T06:09:42.712Z,6.80
2022-10-17T06:12:10.747Z,6.22
2022-10-17T06:14:37.909Z,7.47
2022-10-17T06:17:06.654Z,6.90
2022-10-17T06:19:33.819Z,6.80
2022-10-17T06:22:01.231Z,6.50
2022-10-17T06:24:29.231Z,7.10
2022-10-17T06:26:57.678Z,7.63
2022-10-17T06:29:24.837Z,6.97
2022-10-17T06:31:52.781Z,6.70
2022-10-17T06:34:21.043Z,6.40
2022-10-17T06:36:48.686Z,6.60
2022-10-17T06:39:18.234Z,6.60
2022-10-17T06:41:56.892Z,6.90
2022-10-17T06:44:39.935Z,6.80
2022-10-17T06:47:20.177Z,6.55
2022-10-17T06:49:48.058Z,6.40
2022-10-17T06:52:39.372Z,6.20
2022-10-17T06:55:42.779Z,6.00
2022-10-17T06:58:34.101Z,6.97
2022-10-17T07:01:20.130Z,6.25
2022-10-17T07:03:50.070Z,6.68
2022-10-17T07:06:17.963Z,6.60
2022-10-17T07:08:46.037Z,7.07
2022-10-17T07:11:18.585Z,6.60
2022-10-17T07:13:45.949Z,6.97
2022-10-17T07:16:14.560Z,6.47
2022-10-17T07:18:42.724Z,6.18
2022-10-17T07:21:10.182Z,6.70
2022-10-17T07:23:39.836Z,7.10
2022-10-17T07:26:09.936Z,6.85
2022-10-17T07:28:41.251Z,6.78
2022-10-17T07:31:28.745Z,6.40
2022-10-17T07:33:55.918Z,6.60
2022-10-17T07:36:23.117Z,6.43
2022-10-17T07:38:50.522Z,6.70
2022-10-17T07:41:21.832Z,6.93
2022-10-17T07:43:50.165Z,6.70
2022-10-17T07:46:21.263Z,7.20
2022-10-17T07:48:48.434Z,7.40
2022-10-17T07:51:17.614Z,7.28
2022-10-17T07:53:48.021Z,6.38
2022-10-17T07:56:16.292Z,7.20
2022-10-17T07:58:43.467Z,6.90
2022-10-17T08:01:15.425Z,7.30
2022-10-17T08:03:47.033Z,7.93
2022-10-17T08:06:14.570Z,7.80
2022-10-17T08:08:42.227Z,7.50
2022-10-17T08:11:13.501Z,8.40
2022-10-17T08:13:41.713Z,7.97
2022-10-17T08:16:12.449Z,8.73
2022-10-17T08:18:41.621Z,8.52
2022-10-17T08:21:09.678Z,8.18
2022-10-17T08:23:37.430Z,8.90
2022-10-17T08:26:08.040Z,8.27
2022-10-17T08:28:37.200Z,8.53
2022-10-17T08:31:27.193Z,8.80
2022-10-17T08:33:54.342Z,9.00
2022-10-17T08:36:21.518Z,11.30
2022-10-17T08:38:52.649Z,10.18
2022-10-17T08:41:52.521Z,10.43
2022-10-17T08:44:53.054Z,11.40
2022-10-17T08:47:29.264Z,11.02
2022-10-17T08:50:02.922Z,10.88
2022-10-17T08:52:52.365Z,10.55
2022-10-17T08:55:33.454Z,10.98
2022-10-17T08:58:00.691Z,11.70
2022-10-17T09:00:30.738Z,11.80
2022-10-17T09:03:19.028Z,12.23
2022-10-17T09:06:14.843Z,11.80
2022-10-17T09:08:52.892Z,11.55
2022-10-17T09:11:46.895Z,12.32
2022-10-17T09:14:17.062Z,12.38
2022-10-17T09:17:00.350Z,11.80
2022-10-17T09:19:33.815Z,11.95
2022-10-17T09:22:11.960Z,12.80
2022-10-17T09:24:59.094Z,12.70
2022-10-17T09:27:29.283Z,12.38
2022-10-17T09:30:44.021Z,12.68
2022-10-17T09:33:35.257Z,12.15
2022-10-17T09:36:08.793Z,12.82
2022-10-17T09:38:50.869Z,12.90
2022-10-17T09:41:49.732Z,12.70
2022-10-17T09:44:49.940Z,12.50
2022-10-17T09:47:29.738Z,12.90
2022-10-17T09:49:57.102Z,13.05
2022-10-17T09:52:42.202Z,13.23
2022-10-17T09:55:26.151Z,13.63
2022-10-17T09:57:58.543Z,13.90
2022-10-17T10:00:29.250Z,13.43
2022-10-17T10:03:22.630Z,13.57
2022-10-17T10:06:12.399Z,13.00
2022-10-17T10:08:58.644Z,12.25
2022-10-17T10:11:45.343Z,12.88
2022-10-17T10:14:20.595Z,11.27
2022-10-17T10:16:49.795Z,11.30
2022-10-17T10:19:36.528Z,10.40
2022-10-17T10:22:25.490Z,10.52
2022-10-17T10:25:10.817Z,10.02
2022-10-17T10:27:40.374Z,10.23
2022-10-17T10:30:21.645Z,9.80
2022-10-17T10:32:49.643Z,8.40
2022-10-17T10:35:22.564Z,9.57
2022-10-17T10:37:58.250Z,9.55
2022-10-17T10:40:37.185Z,10.52
2022-10-17T10:43:06.221Z,8.87
2022-10-17T10:45:47.483Z,9.68
2022-10-17T10:48:35.250Z,6.70
2022-10-17T10:51:17.827Z,6.17
2022-10-17T10:53:47.936Z,4.73
2022-10-17T10:56:28.176Z,5.03
2022-10-17T10:59:09.478Z,5.32
2022-10-17T11:01:48.210Z,4.10
2022-10-17T11:04:37.240Z,2.60
2022-10-17T11:07:11.554Z,1.80
2022-10-17T11:10:03.591Z,2.28
2022-10-17T11:12:36.322Z,2.20
2022-10-17T11:15:20.902Z,1.92
2022-10-17T11:18:08.289Z,1.80
2022-10-17T11:20:59.791Z,1.50
2022-10-17T11:23:51.316Z,1.48
2022-10-17T11:26:27.223Z,1.65
2022-10-17T11:29:00.286Z,1.40
2022-10-17T11:31:39.055Z,1.57
2022-10-17T11:34:20.143Z,1.50
2022-10-17T11:36:58.204Z,1.40
2022-10-17T11:39:38.272Z,1.25
2022-10-17T11:42:15.179Z,1.55
2022-10-17T11:44:43.312Z,1.50
2022-10-17T11:47:28.561Z,1.58
2022-10-17T11:53:13.852Z,1.50
2022-10-17T11:55:41.987Z,1.48
2022-10-17T11:58:30.950Z,2.00
2022-10-17T12:01:17.107Z,1.70
2022-10-17T12:04:15.596Z,1.75
2022-10-17T12:07:07.100Z,1.80
2022-10-17T12:10:16.590Z,1.60
2022-10-17T12:12:43.750Z,1.80
2022-10-17T12:15:13.651Z,2.20
2022-10-17T12:17:45.942Z,2.30
2022-10-17T12:20:25.289Z,2.33
2022-10-17T12:23:12.160Z,2.23
2022-10-17T12:26:05.506Z,2.20
2022-10-17T12:28:44.756Z,2.70
2022-10-17T12:31:18.960Z,2.85
2022-10-17T12:33:46.022Z,3.00
2022-10-17T12:36:22.100Z,3.15
2022-10-17T12:39:14.648Z,2.90
2022-10-17T12:41:42.431Z,3.20
2022-10-17T12:44:21.338Z,3.20
2022-10-17T12:47:04.321Z,3.40
2022-10-17T12:49:49.668Z,3.20
2022-10-17T12:52:35.059Z,3.40
2022-10-17T12:55:12.795Z,3.77
2022-10-17T12:57:42.778Z,3.30
2022-10-17T13:00:19.034Z,3.40
2022-10-17T13:02:47.212Z,3.17
2022-10-17T13:05:35.990Z,2.97
2022-10-17T13:08:06.727Z,2.35
2022-10-17T13:10:40.642Z,2.67
2022-10-17T13:13:36.290Z,2.75
2022-10-17T13:16:03.647Z,2.60
2022-10-17T13:18:31.085Z,2.63
2022-10-17T13:21:05.940Z,2.72
2022-10-17T13:23:36.063Z,2.72
2022-10-17T13:26:20.239Z,2.60
2022-10-17T13:31:44.204Z,2.40
2022-10-17T13:34:18.266Z,2.80
2022-10-17T13:36:48.915Z,2.90
2022-10-17T13:39:32.094Z,2.50
2022-10-17T13:42:06.724Z,2.60
2022-10-17T13:44:37.038Z,2.58
2022-10-17T13:47:04.989Z,2.70
2022-10-17T13:49:41.115Z,3.00
2022-10-17T13:52:22.053Z,3.00
2022-10-17T13:54:51.118Z,3.00
2022-10-17T13:57:25.299Z,2.90
2022-10-17T13:59:58.882Z,2.90
2022-10-17T14:02:28.856Z,2.70
2022-10-17T14:05:19.325Z,2.70
2022-10-17T14:08:11.236Z,2.80
2022-10-17T14:10:42.302Z,2.85
2022-10-17T14:13:23.725Z,2.90
2022-10-17T14:15:51.913Z,2.80
2022-10-17T14:18:30.845Z,2.90
2022-10-17T14:23:52.358Z,2.80
2022-10-17T14:26:23.819Z,2.92
2022-10-17T14:29:20.558Z,2.85
2022-10-17T14:31:50.486Z,2.63
2022-10-17T14:34:26.348Z,2.50
2022-10-17T14:36:54.380Z,2.60
2022-10-17T14:39:24.647Z,2.70
2022-10-17T14:41:52.918Z,2.55
2022-10-17T14:44:26.785Z,2.60
2022-10-17T14:46:59.220Z,2.70
2022-10-17T14:49:40.536Z,2.75
2022-10-17T14:52:25.984Z,2.70
2022-10-17T14:54:53.542Z,2.75
2022-10-17T14:57:31.599Z,2.75
2022-10-17T14:59:59.174Z,3.05
2022-10-17T15:02:29.568Z,2.75
2022-10-17T15:04:57.101Z,2.80
2022-10-17T15:07:24.656Z,2.50
2022-10-17T15:09:53.740Z,2.75
2022-10-17T15:12:24.645Z,2.95
2022-10-17T15:14:52.318Z,2.30
2022-10-17T15:17:24.149Z,2.40
2022-10-17T15:19:51.311Z,2.50
2022-10-17T15:22:18.637Z,2.45
2022-10-17T15:24:46.204Z,2.40
2022-10-17T15:27:16.213Z,2.33
2022-10-17T15:29:43.789Z,2.13
2022-10-17T15:32:10.913Z,2.40
2022-10-17T15:34:38.107Z,2.60
2022-10-17T15:37:06.775Z,2.45
2022-10-17T15:39:34.015Z,2.15
2022-10-17T15:42:01.124Z,2.42
2022-10-17T15:44:28.820Z,2.50
2022-10-17T15:46:56.563Z,2.50
2022-10-17T15:49:23.727Z,2.27
2022-10-17T15:51:53.020Z,2.45
2022-10-17T15:54:22.349Z,2.77
2022-10-17T15:56:53.946Z,2.50
2022-10-17T15:59:33.262Z,2.53
2022-10-17T16:02:00.370Z,2.60
2022-10-17T16:04:29.109Z,2.80
2022-10-17T16:06:56.221Z,2.80
2022-10-17T16:09:23.333Z,2.53
2022-10-17T16:11:50.460Z,2.83
2022-10-17T16:14:18.180Z,2.63
2022-10-17T16:16:45.382Z,2.70
2022-10-17T16:19:12.637Z,2.90
2022-10-17T16:21:41.325Z,2.83
2022-10-17T16:24:12.092Z,2.72
2022-10-17T16:26:40.273Z,2.85
2022-10-17T16:29:09.195Z,3.03
2022-10-17T16:31:40.321Z,2.97
2022-10-17T16:34:08.836Z,2.97
2022-10-17T16:36:36.097Z,2.90
2022-10-17T16:39:03.793Z,3.15
2022-10-17T16:41:34.207Z,2.85
2022-10-17T16:44:05.423Z,3.10
2022-10-17T16:46:35.606Z,3.10
2022-10-17T16:49:04.723Z,2.92
2022-10-17T16:51:33.736Z,3.23
2022-10-17T16:54:01.372Z,3.15
2022-10-17T16:56:32.725Z,2.85
2022-10-17T16:59:01.221Z,3.20
2022-10-17T17:01:31.645Z,3.20
2022-10-17T17:03:59.175Z,3.35
2022-10-17T17:06:30.430Z,3.15
2022-10-17T17:08:57.858Z,3.40
2022-10-17T17:11:26.889Z,3.58
2022-10-17T17:13:58.634Z,3.58
2022-10-17T17:16:27.181Z,4.07
2022-10-17T17:19:06.927Z,3.70
2022-10-17T17:21:34.944Z,3.80
2022-10-17T17:24:03.223Z,3.92
2022-10-17T17:26:32.780Z,3.97
2022-10-17T17:29:00.593Z,4.00
2022-10-17T17:31:30.377Z,4.20
2022-10-17T17:33:58.289Z,4.28
2022-10-17T17:36:28.115Z,4.20
2022-10-17T17:38:58.926Z,4.00
2022-10-17T17:41:27.229Z,3.88
2022-10-17T17:43:55.704Z,4.10
2022-10-17T17:46:24.606Z,4.05
2022-10-17T17:48:53.192Z,4.03
2022-10-17T17:51:28.440Z,3.47
2022-10-17T17:53:57.545Z,3.70
2022-10-17T17:56:29.691Z,3.80
2022-10-17T17:58:59.655Z,3.43
2022-10-17T18:01:32.263Z,3.25
2022-10-17T18:03:59.733Z,3.60
2022-10-17T18:06:27.649Z,3.35
2022-10-17T18:08:57.964Z,3.25
2022-10-17T18:11:27.097Z,3.38
2022-10-17T18:13:59.637Z,3.33
2022-10-17T18:16:28.355Z,3.30
2022-10-17T18:18:55.802Z,2.80
2022-10-17T18:21:23.469Z,2.92
2022-10-17T18:23:51.802Z,2.70
2022-10-17T18:26:19.792Z,2.97
2022-10-17T18:28:47.491Z,2.88
2022-10-17T18:31:19.343Z,2.60
2022-10-17T18:33:46.556Z,2.58
2022-10-17T18:36:15.074Z,2.83
2022-10-17T18:38:42.791Z,2.80
2022-10-17T18:41:12.761Z,2.80
2022-10-17T18:43:41.771Z,2.80
2022-10-17T18:46:14.069Z,2.30
2022-10-17T18:48:47.028Z,2.80
2022-10-17T18:51:17.646Z,3.20
2022-10-17T18:53:47.682Z,3.10
2022-10-17T18:56:15.130Z,3.00
2022-10-17T18:58:42.942Z,3.10
2022-10-17T19:01:17.506Z,2.78
2022-10-17T19:03:46.753Z,2.60
2022-10-17T19:06:16.834Z,2.85
2022-10-17T19:08:44.544Z,3.03
2022-10-17T19:11:16.500Z,3.10
2022-10-17T19:16:20.156Z,3.05
2022-10-17T19:18:56.060Z,3.20
2022-10-17T19:21:23.764Z,3.17
2022-10-17T19:23:53.598Z,2.90
2022-10-17T19:26:21.771Z,3.20
2022-10-17T19:28:51.957Z,3.33
2022-10-17T19:31:26.815Z,3.08
2022-10-17T19:33:56.101Z,3.10
2022-10-17T19:36:28.885Z,3.10
2022-10-17T19:39:00.338Z,3.20
2022-10-17T19:41:28.147Z,3.17
2022-10-17T19:43:55.449Z,3.28
2022-10-17T19:46:26.522Z,3.30
2022-10-17T19:48:53.966Z,3.50
2022-10-17T19:51:24.429Z,3.70
2022-10-17T19:53:52.938Z,3.30
2022-10-17T19:56:21.849Z,3.83
2022-10-17T19:58:49.848Z,3.65
2022-10-17T20:01:20.184Z,3.72
2022-10-17T20:03:50.482Z,4.05
2022-10-17T20:06:18.074Z,4.00
2022-10-17T20:08:45.456Z,3.90
2022-10-17T20:11:15.363Z,3.70
2022-10-17T20:13:43.292Z,3.90
2022-10-17T20:16:13.789Z,4.00
2022-10-17T20:18:41.037Z,4.00
2022-10-17T20:21:15.463Z,4.20
2022-10-17T20:23:43.399Z,4.28
2022-10-17T20:26:25.966Z,4.50
2022-10-17T20:29:02.409Z,4.80
2022-10-17T20:31:30.027Z,4.63
2022-10-17T20:33:58.793Z,4.45
2022-10-17T20:36:26.516Z,4.68
2022-10-17T20:38:58.428Z,4.93
2022-10-17T20:41:26.546Z,4.73
2022-10-17T20:43:55.419Z,4.70
2022-10-17T20:46:36.335Z,4.80
2022-10-17T20:49:05.840Z,4.70
2022-10-17T20:51:33.600Z,5.20
2022-10-17T20:54:01.150Z,4.88
2022-10-17T20:56:30.398Z,5.32
2022-10-17T20:59:00.240Z,5.10
2022-10-17T21:01:28.803Z,4.97
2022-10-17T21:03:59.669Z,5.00
2022-10-17T21:06:27.872Z,5.10
2022-10-17T21:08:56.082Z,5.47
2022-10-17T21:11:25.434Z,5.30
2022-10-17T21:14:04.067Z,5.87
2022-10-17T21:16:33.030Z,6.10
2022-10-17T21:19:00.924Z,5.70
2022-10-17T21:21:33.891Z,6.00
2022-10-17T21:24:04.832Z,6.18
2022-10-17T21:26:33.858Z,5.55
2022-10-17T21:29:05.641Z,5.95
2022-10-17T21:31:35.437Z,5.80
2022-10-17T21:34:11.402Z,6.00
2022-10-17T21:36:38.831Z,6.10
2022-10-17T21:41:38.718Z,6.82
2022-10-17T21:44:11.603Z,6.45
2022-10-17T21:46:38.820Z,6.67
2022-10-17T21:49:06.299Z,7.40
2022-10-17T21:51:33.474Z,7.68
2022-10-17T21:54:00.756Z,7.50
2022-10-17T21:56:30.511Z,7.73
2022-10-17T21:58:58.634Z,8.10
2022-10-17T22:01:28.274Z,8.40
2022-10-17T22:03:58.114Z,8.82
2022-10-17T22:06:44.535Z,8.93
2022-10-17T22:09:15.572Z,9.27
2022-10-17T22:11:48.354Z,8.88
2022-10-17T22:14:18.474Z,9.20
2022-10-17T22:16:46.752Z,9.57
2022-10-17T22:19:16.928Z,9.18
2022-10-17T22:21:44.549Z,9.70
2022-10-17T22:24:13.509Z,10.15
2022-10-17T22:26:41.432Z,10.47
2022-10-17T22:29:09.587Z,10.20
2022-10-17T22:31:37.650Z,9.50
2022-10-17T22:34:05.923Z,10.25
2022-10-17T22:36:34.476Z,10.52
2022-10-17T22:39:01.876Z,10.45
2022-10-17T22:41:29.274Z,11.18
2022-10-17T22:43:56.450Z,10.63
2022-10-17T22:46:23.735Z,11.05
2022-10-17T22:48:50.983Z,10.93
2022-10-17T22:51:18.431Z,11.90
2022-10-17T22:53:45.870Z,11.90
2022-10-17T22:56:19.704Z,11.90
2022-10-17T22:58:47.615Z,12.00
2022-10-17T23:01:17.874Z,12.27
2022-10-17T23:03:45.266Z,12.35
2022-10-17T23:06:12.526Z,13.13
2022-10-17T23:08:39.825Z,12.40
2022-10-17T23:11:07.915Z,13.00
2022-10-17T23:13:35.682Z,13.57
2022-10-17T23:16:03.708Z,13.95
2022-10-17T23:21:03.027Z,13.43
2022-10-17T23:23:30.153Z,13.45
2022-10-17T23:26:07.774Z,13.70
2022-10-17T23:28:35.586Z,13.88
2022-10-17T23:31:13.856Z,13.68
2022-10-17T23:33:41.723Z,13.43
2022-10-17T23:36:14.043Z,14.23
2022-10-17T23:38:42.956Z,14.55
2022-10-17T23:41:10.860Z,13.85
2022-10-17T23:43:38.166Z,14.32
2022-10-17T23:46:06.686Z,14.25
2022-10-17T23:48:34.217Z,14.00
2022-10-17T23:51:01.481Z,14.40
2022-10-17T23:53:28.604Z,14.05
2022-10-17T23:55:56.080Z,14.40
2022-10-17T23:58:23.249Z,14.30
